Minerva Libra — SVAA7 — position and weather

sailwx.info

Track history (hours):
 
Tides and Currents Weather Stations Pressure Air Temp Water Temp Dewpoint Dewpoint Depression Visibility Wind Speed Wind Dir Waves Ship Positions

Minerva Libra

Last reported at 2017-Mar-28 19:33 UTC. Time now 2017-Mar-28 19:34 UTC.
Position N 54°48' E 012°59'.

Length 250 m; draft 8.5 m.

Type: Ship. MMSI: 240766000.

Date/timePositionNaut miles runAvg speedWind from/ knotsBaromVisibWave heightAir tempDewpointWater temp
2017-Mar-28 19:33N 54°48' E 012°59'10 9.5
2017-Mar-28 18:33N 54°45' E 012°43'19 9.2
2017-Mar-28 16:32N 54°34' E 012°17'16 7.8
2017-Mar-28 14:32N 54°25' E 011°55'9 9.4
2017-Mar-28 13:33N 54°27' E 011°40'9 9.2
2017-Mar-28 12:33N 54°31' E 011°26'9 8.8
2017-Mar-28 11:33N 54°35' E 011°12'9 8.6
2017-Mar-28 10:33N 54°39' E 010°59'8 8.2
2017-Mar-28 09:33N 54°46' E 010°50'9 9.3
2017-Mar-28 08:33N 54°55' E 010°53'9 9.3
2017-Mar-28 07:33N 55°03' E 011°01'9 9.5
2017-Mar-28 06:33N 55°12' E 011°06'7 7.3
2017-Mar-28 05:33N 55°19' E 011°02'9 9.5
2017-Mar-28 04:33N 55°28' E 010°55'1010.1
2017-Mar-28 03:33N 55°37' E 010°48'14 9.8
2017-Mar-28 02:09N 55°50' E 010°50'18 9.6
2017-Mar-28 00:18N 56°06' E 011°05'11 9.8
2017-Mar-27 23:09N 56°17' E 011°05'8 9.4
2017-Mar-27 22:21N 56°25' E 011°08'27 9.5
2017-Mar-27 19:33N 56°42' E 011°45'18 8.2
2017-Mar-27 17:24N 56°60' E 011°42'9 9.5
2017-Mar-27 16:26N 57°08' E 011°37'9 9.7
2017-Mar-27 15:33N 57°16' E 011°32'9 9.4
2017-Mar-27 14:33N 57°25' E 011°26'9 9.1
2017-Mar-27 13:33N 57°32' E 011°14'10 9.6
2017-Mar-27 12:33N 57°36' E 010°57'9 8.9
2017-Mar-27 11:33N 57°39' E 010°42'1 0.7
2017-Mar-27 10:33N 57°40' E 010°41'0 0.0
2017-Mar-27 09:33N 57°40' E 010°41'0 0.0
2017-Mar-27 08:21N 57°40' E 010°41'0 0.0
2017-Mar-27 07:30N 57°40' E 010°41'0 0.0
2017-Mar-27 06:21N 57°40' E 010°41'0 0.0
2017-Mar-27 05:30N 57°40' E 010°41'0 0.0
2017-Mar-27 04:27N 57°40' E 010°41'0 0.0
2017-Mar-27 03:30N 57°40' E 010°41'0 0.0
2017-Mar-27 02:30N 57°40' E 010°41'0 0.0
2017-Mar-27 01:27N 57°40' E 010°41'0 0.0
2017-Mar-27 00:27N 57°40' E 010°41'0 0.0
2017-Mar-26 23:27N 57°40' E 010°41'0 0.4
2017-Mar-26 22:33N 57°40' E 010°42'6 6.0
2017-Mar-26 21:33N 57°45' E 010°46'7 7.3
2017-Mar-26 20:33N 57°49' E 010°33'7 6.6
2017-Mar-26 19:33N 57°48' E 010°21'7 6.7
2017-Mar-26 18:33N 57°48' E 010°08'7 6.6
2017-Mar-26 17:32N 57°48' E 009°56'8 6.0
2017-Mar-26 16:17N 57°47' E 009°42'4 5.6
2017-Mar-26 15:33N 57°45' E 009°35'12 6.1
2017-Mar-26 13:33N 57°41' E 009°13'10 7.4
2017-Mar-26 12:15N 57°36' E 008°58'122 5.1
2017-Mar-25 12:04N 55°51' E 007°02'4 5.1
2017-Mar-25 11:17N 55°47' E 007°02'4 5.1
2017-Mar-25 10:33N 55°44' E 007°02'5 4.9
2017-Mar-25 09:33N 55°39' E 007°02'5 4.7
2017-Mar-25 08:33N 55°34' E 007°03'5 4.6
2017-Mar-25 07:32N 55°29' E 007°03'4 4.5
2017-Mar-25 06:33N 55°25' E 007°03'5 4.7
2017-Mar-25 05:33N 55°20' E 007°03'5 4.9
2017-Mar-25 04:33N 55°15' E 007°03'5 5.2
2017-Mar-25 03:34N 55°10' E 007°04'5 5.5
2017-Mar-25 02:33N 55°05' E 007°03'6 5.7
2017-Mar-25 01:33N 54°59' E 007°03'5 5.5
2017-Mar-25 00:33N 54°54' E 007°06'6 6.3
2017-Mar-24 23:34N 54°48' E 007°09'6 6.3
2017-Mar-24 22:34N 54°42' E 007°13'6 6.0
2017-Mar-24 21:34N 54°36' E 007°16'6 5.6
2017-Mar-24 20:34N 54°31' E 007°19'12 5.1
2017-Mar-24 18:16N 54°20' E 007°26'10 4.9
2017-Mar-24 16:19N 54°10' E 007°29'4 0.4
2017-Mar-24 06:22N 54°07' E 007°25'0 0.0
2017-Mar-24 05:31N 54°07' E 007°25'20 3.2
2017-Mar-23 23:13N 53°51' E 007°48'1015.4
2017-Mar-23 22:34N 53°47' E 008°03'1414.0
2017-Mar-23 21:33N 53°33' E 008°10'0 0.0
2017-Mar-23 16:27N 53°33' E 008°10'0 0.0
2017-Mar-23 15:33N 53°33' E 008°10'0 0.0
2017-Mar-23 12:27N 53°33' E 008°10'0 0.0
2017-Mar-23 07:21N 53°33' E 008°10'0 0.0
2017-Mar-23 06:33N 53°33' E 008°10'0 0.0
2017-Mar-23 05:33N 53°33' E 008°10'0 0.0
2017-Mar-23 04:30N 53°33' E 008°10'0 0.0
2017-Mar-23 03:27N 53°33' E 008°10'0 0.0
2017-Mar-23 02:27N 53°33' E 008°10'0 0.0
2017-Mar-23 01:33N 53°33' E 008°10'0 0.0
2017-Mar-23 00:27N 53°33' E 008°10'0 0.0
2017-Mar-22 23:30N 53°33' E 008°10'0 0.0
2017-Mar-22 22:33N 53°33' E 008°10'0 0.0
2017-Mar-22 20:21N 53°33' E 008°10'0 0.0
2017-Mar-22 17:33N 53°33' E 008°10'2 2.2
2017-Mar-22 16:33N 53°35' E 008°10'1010.3
2017-Mar-22 15:34N 53°45' E 008°03'60 6.3
2017-Mar-22 06:03N 54°38' E 007°15'712.6
2017-Mar-22 05:30N 54°45' E 007°13'1212.6
2017-Mar-22 04:33N 54°57' E 007°09'1312.9
2017-Mar-22 03:33N 55°10' E 007°04'1212.4
2017-Mar-22 02:33N 55°22' E 007°04'1212.3
2017-Mar-22 01:33N 55°34' E 007°05'116 9.3
2017-Mar-21 13:06N 57°24' E 008°15'610.2
2017-Mar-21 12:33N 57°27' E 008°23'1110.5
2017-Mar-21 11:32N 57°32' E 008°41'4811.0
2017-Mar-21 07:07N 57°49' E 010°06'611.6
2017-Mar-21 06:33N 57°49' E 010°18'1211.5
2017-Mar-21 05:33N 57°49' E 010°39'7 7.0
2017-Mar-21 04:32N 57°42' E 010°44'6 6.0
2017-Mar-21 03:33N 57°37' E 010°50'1211.9
2017-Mar-21 02:33N 57°32' E 011°10'1111.6
2017-Mar-21 01:33N 57°26' E 011°28'1212.1
2017-Mar-21 00:33N 57°14' E 011°35'1212.1
2017-Mar-20 23:33N 57°03' E 011°43'11111.1
2017-Mar-20 13:33N 55°14' E 011°06'1211.6
2017-Mar-20 12:33N 55°03' E 010°60'1212.4
2017-Mar-20 11:33N 54°51' E 010°50'1211.6
2017-Mar-20 10:33N 54°40' E 010°49'1212.3
2017-Mar-20 09:33N 54°36' E 011°10'1312.6
2017-Mar-20 08:33N 54°31' E 011°29'1312.7
2017-Mar-20 07:33N 54°27' E 011°50'1211.6
2017-Mar-20 06:33N 54°26' E 012°10'1010.0
2017-Mar-20 05:33N 54°36' E 012°17'9 8.5
2017-Mar-20 04:33N 54°41' E 012°29'4511.0
2017-Mar-20 00:30N 54°59' E 013°39'1212.6
2017-Mar-19 23:33N 55°03' E 013°59'1212.5
2017-Mar-19 22:33N 55°12' E 014°15'1212.5
2017-Mar-19 21:33N 55°21' E 014°29'1212.4
2017-Mar-19 20:33N 55°29' E 014°46'1212.4
2017-Mar-19 19:33N 55°35' E 015°05'1312.5
2017-Mar-19 18:33N 55°39' E 015°26'1312.6
2017-Mar-19 17:33N 55°42' E 015°47'1312.8
2017-Mar-19 16:33N 55°46' E 016°09'1312.7
2017-Mar-19 15:33N 55°49' E 016°31'1312.5
2017-Mar-19 14:33N 55°52' E 016°53'  
Track history (hours):
 
Tides and Currents Weather Stations Pressure Air Temp Water Temp Dewpoint Dewpoint Depression Visibility Wind Speed Wind Dir Waves Ship Positions

Minerva Libra

Last reported at 2017-Mar-28 19:33 UTC. Time now 2017-Mar-28 19:34 UTC.
Position N 54°48' E 012°59'.

Length 250 m; draft 8.5 m.

Type: Ship. MMSI: 240766000.

Date/timePositionNaut miles runAvg speedWind from/ knotsBaromVisibWave heightAir tempDewpointWater temp
2017-Mar-28 19:33N 54°48' E 012°59'10 9.5
2017-Mar-28 18:33N 54°45' E 012°43'19 9.2
2017-Mar-28 16:32N 54°34' E 012°17'16 7.8
2017-Mar-28 14:32N 54°25' E 011°55'9 9.4
2017-Mar-28 13:33N 54°27' E 011°40'9 9.2
2017-Mar-28 12:33N 54°31' E 011°26'9 8.8
2017-Mar-28 11:33N 54°35' E 011°12'9 8.6
2017-Mar-28 10:33N 54°39' E 010°59'8 8.2
2017-Mar-28 09:33N 54°46' E 010°50'9 9.3
2017-Mar-28 08:33N 54°55' E 010°53'9 9.3
2017-Mar-28 07:33N 55°03' E 011°01'9 9.5
2017-Mar-28 06:33N 55°12' E 011°06'7 7.3
2017-Mar-28 05:33N 55°19' E 011°02'9 9.5
2017-Mar-28 04:33N 55°28' E 010°55'1010.1
2017-Mar-28 03:33N 55°37' E 010°48'14 9.8
2017-Mar-28 02:09N 55°50' E 010°50'18 9.6
2017-Mar-28 00:18N 56°06' E 011°05'11 9.8
2017-Mar-27 23:09N 56°17' E 011°05'8 9.4
2017-Mar-27 22:21N 56°25' E 011°08'27 9.5
2017-Mar-27 19:33N 56°42' E 011°45'18 8.2
2017-Mar-27 17:24N 56°60' E 011°42'9 9.5
2017-Mar-27 16:26N 57°08' E 011°37'9 9.7
2017-Mar-27 15:33N 57°16' E 011°32'9 9.4
2017-Mar-27 14:33N 57°25' E 011°26'9 9.1
2017-Mar-27 13:33N 57°32' E 011°14'10 9.6
2017-Mar-27 12:33N 57°36' E 010°57'9 8.9
2017-Mar-27 11:33N 57°39' E 010°42'1 0.7
2017-Mar-27 10:33N 57°40' E 010°41'0 0.0
2017-Mar-27 09:33N 57°40' E 010°41'0 0.0
2017-Mar-27 08:21N 57°40' E 010°41'0 0.0
2017-Mar-27 07:30N 57°40' E 010°41'0 0.0
2017-Mar-27 06:21N 57°40' E 010°41'0 0.0
2017-Mar-27 05:30N 57°40' E 010°41'0 0.0
2017-Mar-27 04:27N 57°40' E 010°41'0 0.0
2017-Mar-27 03:30N 57°40' E 010°41'0 0.0
2017-Mar-27 02:30N 57°40' E 010°41'0 0.0
2017-Mar-27 01:27N 57°40' E 010°41'0 0.0
2017-Mar-27 00:27N 57°40' E 010°41'0 0.0
2017-Mar-26 23:27N 57°40' E 010°41'0 0.4
2017-Mar-26 22:33N 57°40' E 010°42'6 6.0
2017-Mar-26 21:33N 57°45' E 010°46'7 7.3
2017-Mar-26 20:33N 57°49' E 010°33'7 6.6
2017-Mar-26 19:33N 57°48' E 010°21'7 6.7
2017-Mar-26 18:33N 57°48' E 010°08'7 6.6
2017-Mar-26 17:32N 57°48' E 009°56'8 6.0
2017-Mar-26 16:17N 57°47' E 009°42'4 5.6
2017-Mar-26 15:33N 57°45' E 009°35'12 6.1
2017-Mar-26 13:33N 57°41' E 009°13'10 7.4
2017-Mar-26 12:15N 57°36' E 008°58'122 5.1
2017-Mar-25 12:04N 55°51' E 007°02'4 5.1
2017-Mar-25 11:17N 55°47' E 007°02'4 5.1
2017-Mar-25 10:33N 55°44' E 007°02'5 4.9
2017-Mar-25 09:33N 55°39' E 007°02'5 4.7
2017-Mar-25 08:33N 55°34' E 007°03'5 4.6
2017-Mar-25 07:32N 55°29' E 007°03'4 4.5
2017-Mar-25 06:33N 55°25' E 007°03'5 4.7
2017-Mar-25 05:33N 55°20' E 007°03'5 4.9
2017-Mar-25 04:33N 55°15' E 007°03'5 5.2
2017-Mar-25 03:34N 55°10' E 007°04'5 5.5
2017-Mar-25 02:33N 55°05' E 007°03'6 5.7
2017-Mar-25 01:33N 54°59' E 007°03'5 5.5
2017-Mar-25 00:33N 54°54' E 007°06'6 6.3
2017-Mar-24 23:34N 54°48' E 007°09'6 6.3
2017-Mar-24 22:34N 54°42' E 007°13'6 6.0
2017-Mar-24 21:34N 54°36' E 007°16'6 5.6
2017-Mar-24 20:34N 54°31' E 007°19'12 5.1
2017-Mar-24 18:16N 54°20' E 007°26'10 4.9
2017-Mar-24 16:19N 54°10' E 007°29'4 0.4
2017-Mar-24 06:22N 54°07' E 007°25'0 0.0
2017-Mar-24 05:31N 54°07' E 007°25'20 3.2
2017-Mar-23 23:13N 53°51' E 007°48'1015.4
2017-Mar-23 22:34N 53°47' E 008°03'1414.0
2017-Mar-23 21:33N 53°33' E 008°10'0 0.0
2017-Mar-23 16:27N 53°33' E 008°10'0 0.0
2017-Mar-23 15:33N 53°33' E 008°10'0 0.0
2017-Mar-23 12:27N 53°33' E 008°10'0 0.0
2017-Mar-23 07:21N 53°33' E 008°10'0 0.0
2017-Mar-23 06:33N 53°33' E 008°10'0 0.0
2017-Mar-23 05:33N 53°33' E 008°10'0 0.0
2017-Mar-23 04:30N 53°33' E 008°10'0 0.0
2017-Mar-23 03:27N 53°33' E 008°10'0 0.0
2017-Mar-23 02:27N 53°33' E 008°10'0 0.0
2017-Mar-23 01:33N 53°33' E 008°10'0 0.0
2017-Mar-23 00:27N 53°33' E 008°10'0 0.0
2017-Mar-22 23:30N 53°33' E 008°10'0 0.0
2017-Mar-22 22:33N 53°33' E 008°10'0 0.0
2017-Mar-22 20:21N 53°33' E 008°10'0 0.0
2017-Mar-22 17:33N 53°33' E 008°10'2 2.2
2017-Mar-22 16:33N 53°35' E 008°10'1010.3
2017-Mar-22 15:34N 53°45' E 008°03'60 6.3
2017-Mar-22 06:03N 54°38' E 007°15'712.6
2017-Mar-22 05:30N 54°45' E 007°13'1212.6
2017-Mar-22 04:33N 54°57' E 007°09'1312.9
2017-Mar-22 03:33N 55°10' E 007°04'1212.4
2017-Mar-22 02:33N 55°22' E 007°04'1212.3
2017-Mar-22 01:33N 55°34' E 007°05'116 9.3
2017-Mar-21 13:06N 57°24' E 008°15'610.2
2017-Mar-21 12:33N 57°27' E 008°23'1110.5
2017-Mar-21 11:32N 57°32' E 008°41'4811.0
2017-Mar-21 07:07N 57°49' E 010°06'611.6
2017-Mar-21 06:33N 57°49' E 010°18'1211.5
2017-Mar-21 05:33N 57°49' E 010°39'7 7.0
2017-Mar-21 04:32N 57°42' E 010°44'6 6.0
2017-Mar-21 03:33N 57°37' E 010°50'1211.9
2017-Mar-21 02:33N 57°32' E 011°10'1111.6
2017-Mar-21 01:33N 57°26' E 011°28'1212.1
2017-Mar-21 00:33N 57°14' E 011°35'1212.1
2017-Mar-20 23:33N 57°03' E 011°43'11111.1
2017-Mar-20 13:33N 55°14' E 011°06'1211.6
2017-Mar-20 12:33N 55°03' E 010°60'1212.4
2017-Mar-20 11:33N 54°51' E 010°50'1211.6
2017-Mar-20 10:33N 54°40' E 010°49'1212.3
2017-Mar-20 09:33N 54°36' E 011°10'1312.6
2017-Mar-20 08:33N 54°31' E 011°29'1312.7
2017-Mar-20 07:33N 54°27' E 011°50'1211.6
2017-Mar-20 06:33N 54°26' E 012°10'1010.0
2017-Mar-20 05:33N 54°36' E 012°17'9 8.5
2017-Mar-20 04:33N 54°41' E 012°29'4511.0
2017-Mar-20 00:30N 54°59' E 013°39'1212.6
2017-Mar-19 23:33N 55°03' E 013°59'1212.5
2017-Mar-19 22:33N 55°12' E 014°15'1212.5
2017-Mar-19 21:33N 55°21' E 014°29'1212.4
2017-Mar-19 20:33N 55°29' E 014°46'1212.4
2017-Mar-19 19:33N 55°35' E 015°05'1312.5
2017-Mar-19 18:33N 55°39' E 015°26'1312.6
2017-Mar-19 17:33N 55°42' E 015°47'1312.8
2017-Mar-19 16:33N 55°46' E 016°09'1312.7
2017-Mar-19 15:33N 55°49' E 016°31'1312.5
2017-Mar-19 14:33N 55°52' E 016°53'  

Dump ship's entire track history